Time;durP1;ratioP1;P1;durP2;ratioP2;P2;SDS_P1;SDS_P2;PMS_P1;PMS_P2;Temp;Humidity;BMP_temperature;BMP_pressure;BME280_temperature;BME280_humidity;BME280_pressure;Samples;Min_cycle;Max_cycle;Signal;HPM_P1;HPM_P2
2022/11/12 00:03:36;;;;;;;0.10;0.10;;;;;;;10.31;61.28;99599.34;8416321;28;20536;-73
2022/11/12 00:07:40;;;;;;;0.10;0.10;;;;;;;10.33;61.16;99593.25;8416123;28;20226;-73
2022/11/12 00:11:42;;;;;;;0.10;0.10;;;;;;;10.38;60.71;99588.00;8415920;28;20454;-72
2022/11/12 00:15:47;;;;;;;0.10;0.10;;;;;;;10.31;60.57;99586.41;8416162;28;20230;-73
2022/11/12 00:19:49;;;;;;;0.10;0.10;;;;;;;10.20;60.97;99586.53;8415950;28;20286;-73
2022/11/12 00:23:53;;;;;;;0.10;0.10;;;;;;;10.26;60.93;99583.00;8415165;28;20254;-73
2022/11/12 00:28:01;;;;;;;0.10;0.10;;;;;;;10.15;60.48;99586.63;8415279;28;20249;-73
2022/11/12 00:32:04;;;;;;;0.10;0.10;;;;;;;10.01;61.12;99585.16;8415193;28;20230;-73
2022/11/12 00:36:07;;;;;;;0.10;0.10;;;;;;;10.07;61.08;99578.16;8415575;28;20238;-73
2022/11/12 00:40:12;;;;;;;0.10;0.10;;;;;;;9.95;61.17;99575.75;8414926;28;20230;-73
2022/11/12 00:44:15;;;;;;;0.10;0.10;;;;;;;10.00;61.05;99576.53;8414877;28;20542;-72
2022/11/12 00:48:17;;;;;;;0.10;0.10;;;;;;;9.98;60.73;99568.78;8414724;28;20313;-73
2022/11/12 00:52:20;;;;;;;0.10;0.10;;;;;;;10.04;60.71;99570.41;8414685;28;20222;-73
2022/11/12 00:56:25;;;;;;;0.10;0.10;;;;;;;10.00;60.61;99570.50;8414449;28;20538;-72
2022/11/12 01:00:27;;;;;;;0.10;0.10;;;;;;;9.89;60.82;99568.09;8414423;28;20451;-73
2022/11/12 01:04:30;;;;;;;0.10;0.10;;;;;;;9.83;61.28;99569.03;8414064;28;20314;-73
2022/11/12 01:08:33;;;;;;;0.10;0.10;;;;;;;9.83;61.21;99557.84;8414347;28;20233;-73
2022/11/12 01:12:37;;;;;;;0.10;0.10;;;;;;;10.06;60.56;99560.03;8413809;28;20434;-72
2022/11/12 01:16:41;;;;;;;0.10;0.10;;;;;;;9.96;60.66;99559.34;8414086;28;20543;-73
2022/11/12 01:20:44;;;;;;;0.10;0.10;;;;;;;10.04;60.42;99559.22;8414010;28;20235;-73
2022/11/12 01:24:47;;;;;;;0.10;0.10;;;;;;;9.97;60.98;99554.13;8413983;28;20230;-73
2022/11/12 01:28:52;;;;;;;0.10;0.10;;;;;;;10.01;60.26;99552.34;8413817;28;20235;-73
2022/11/12 01:32:54;;;;;;;0.10;0.10;;;;;;;10.00;60.58;99555.81;8413552;28;20515;-73
2022/11/12 01:36:57;;;;;;;0.10;0.10;;;;;;;9.82;60.36;99544.03;8413954;28;20404;-73
2022/11/12 01:41:00;;;;;;;0.10;0.10;;;;;;;9.89;60.73;99542.22;8413357;28;20295;-73
2022/11/12 01:45:14;;;;;;;0.10;0.10;;;;;;;9.75;60.94;99540.69;8413439;28;20292;-73
2022/11/12 01:49:22;;;;;;;0.10;0.10;;;;;;;9.84;60.96;99549.19;8413587;28;20227;-73
2022/11/12 01:53:26;;;;;;;0.10;0.10;;;;;;;9.86;60.63;99540.53;8413383;28;20526;-72
2022/11/12 01:57:31;;;;;;;0.10;0.10;;;;;;;9.84;61.13;99538.84;8413336;28;20230;-73
2022/11/12 02:01:38;;;;;;;0.10;0.10;;;;;;;9.79;60.97;99536.34;8413414;28;20230;-73
2022/11/12 02:05:42;;;;;;;0.10;0.10;;;;;;;9.73;61.45;99526.09;8413152;28;20238;-73
2022/11/12 02:09:44;;;;;;;0.10;0.10;;;;;;;9.99;60.72;99536.00;8413426;28;20230;-73
2022/11/12 02:14:00;;;;;;;0.10;0.10;;;;;;;10.00;60.60;99532.53;8412859;28;20251;-73
2022/11/12 02:18:04;;;;;;;0.10;0.10;;;;;;;10.04;60.26;99543.69;8412906;28;20260;-73
2022/11/12 02:22:08;;;;;;;0.10;0.10;;;;;;;9.89;60.67;99540.47;8412862;28;20276;-73
2022/11/12 02:26:11;;;;;;;0.10;0.10;;;;;;;9.69;60.28;99540.81;8419462;28;20241;-73
2022/11/12 02:30:14;;;;;;;0.10;0.10;;;;;;;9.81;60.94;99533.72;8419307;28;20237;-73
2022/11/12 02:34:17;;;;;;;0.10;0.10;;;;;;;9.78;60.50;99532.03;8419308;28;20280;-72
2022/11/12 02:38:21;;;;;;;0.10;0.10;;;;;;;9.80;60.68;99538.03;8419106;28;20229;-73
2022/11/12 02:42:24;;;;;;;0.10;0.10;;;;;;;9.71;61.01;99540.75;8418880;28;20238;-72
2022/11/12 02:46:26;;;;;;;0.10;0.10;;;;;;;9.72;60.80;99542.47;8418503;28;20513;-73
2022/11/12 02:50:29;;;;;;;0.10;0.10;;;;;;;9.85;60.68;99545.72;8418681;28;20553;-73
2022/11/12 02:54:33;;;;;;;0.10;0.10;;;;;;;9.81;60.68;99547.50;8418574;28;20238;-73
2022/11/12 02:58:36;;;;;;;0.10;0.10;;;;;;;9.86;60.66;99542.25;8418675;28;20276;-72
2022/11/12 03:02:41;;;;;;;0.10;0.10;;;;;;;10.01;60.45;99543.72;8418109;28;20230;-73
2022/11/12 03:06:44;;;;;;;0.10;0.10;;;;;;;9.80;60.88;99540.59;8418040;28;20325;-73
2022/11/12 03:10:49;;;;;;;0.10;0.10;;;;;;;9.82;60.88;99543.19;8418123;28;20322;-73
2022/11/12 03:14:51;;;;;;;0.10;0.10;;;;;;;9.96;60.42;99533.47;8417940;28;20242;-73
2022/11/12 03:18:54;;;;;;;0.10;0.10;;;;;;;10.01;60.13;99543.72;8417471;28;20453;-73
2022/11/12 03:22:58;;;;;;;0.10;0.10;;;;;;;9.88;60.12;99543.06;8417718;28;20230;-73
2022/11/12 03:27:02;;;;;;;0.10;0.10;;;;;;;9.91;59.81;99541.28;8417353;28;20235;-73
2022/11/12 03:31:05;;;;;;;0.10;0.10;;;;;;;9.79;60.34;99539.75;8417664;28;20250;-73
2022/11/12 03:35:08;;;;;;;0.10;0.10;;;;;;;9.71;60.38;99541.63;8416180;28;20242;-73
2022/11/12 03:39:11;;;;;;;0.10;0.10;;;;;;;9.79;60.48;99534.59;8417200;28;20422;-73
2022/11/12 03:43:15;;;;;;;0.10;0.10;;;;;;;9.88;59.98;99531.00;8417109;28;20222;-72
2022/11/12 03:47:18;;;;;;;0.10;0.10;;;;;;;9.70;60.22;99536.47;8416710;28;20292;-73
2022/11/12 03:51:21;;;;;;;0.10;0.10;;;;;;;9.76;60.59;99534.63;8416923;28;20223;-72
2022/11/12 03:55:26;;;;;;;0.10;0.10;;;;;;;9.77;60.47;99533.75;8416753;28;20276;-72
2022/11/12 03:59:30;;;;;;;0.10;0.10;;;;;;;9.61;60.67;99539.19;8416555;28;20235;-73
2022/11/12 04:03:33;;;;;;;0.10;0.10;;;;;;;9.69;60.43;99540.81;8416310;28;20233;-73
2022/11/12 04:13:26;;;;;;;0.10;0.10;;;;;;;9.51;60.45;99534.16;8415560;28;20542;-72
2022/11/12 04:33:41;;;;;;;0.10;0.10;;;;;;;9.43;60.66;99558.44;8415224;28;20235;-73
2022/11/12 04:37:46;;;;;;;0.10;0.10;;;;;;;9.43;59.97;99556.69;8415381;28;20231;-73
2022/11/12 04:46:09;;;;;;;0.10;0.10;;;;;;;9.46;59.77;99560.97;8414429;28;20238;-72
2022/11/12 04:50:15;;;;;;;0.10;0.10;;;;;;;9.52;59.23;99564.34;8414926;28;20246;-73
2022/11/12 04:54:18;;;;;;;0.10;0.10;;;;;;;9.44;59.36;99560.13;8414692;28;20223;-73
2022/11/12 04:58:21;;;;;;;0.10;0.10;;;;;;;9.36;58.78;99560.25;8414673;28;20522;-72
2022/11/12 05:02:24;;;;;;;0.10;0.10;;;;;;;9.29;58.39;99567.25;8414691;28;20286;-72
2022/11/12 05:10:48;;;;;;;0.10;0.10;;;;;;;9.25;58.40;99568.13;8414201;28;20235;-73
2022/11/12 05:14:51;;;;;;;0.10;0.10;;;;;;;9.17;57.98;99567.41;8414332;28;20231;-73
2022/11/12 05:18:54;;;;;;;0.10;0.10;;;;;;;9.22;58.13;99565.59;8413617;28;20235;-73
2022/11/12 05:22:58;;;;;;;0.20;0.20;;;;;;;9.13;58.02;99560.56;8413983;28;20250;-73
2022/11/12 05:27:11;;;;;;;0.10;0.10;;;;;;;9.14;57.69;99557.13;8413845;28;20262;-73
2022/11/12 05:31:14;;;;;;;0.10;0.10;;;;;;;9.10;57.95;99558.88;8413652;28;20234;-73
2022/11/12 05:35:17;;;;;;;0.10;0.10;;;;;;;9.09;57.96;99544.22;8413785;28;20237;-72
2022/11/12 05:39:21;;;;;;;0.10;0.10;;;;;;;9.03;57.09;99544.31;8413794;28;20511;-72
2022/11/12 05:43:24;;;;;;;0.10;0.10;;;;;;;8.97;57.54;99547.84;8413825;28;20272;-72
2022/11/12 05:47:26;;;;;;;0.10;0.10;;;;;;;8.96;57.51;99547.84;8413403;28;20484;-73
2022/11/12 05:51:29;;;;;;;0.10;0.10;;;;;;;8.91;57.24;99550.50;8413556;28;20250;-73
2022/11/12 05:55:33;;;;;;;0.10;0.10;;;;;;;8.97;57.49;99550.41;8413422;28;20258;-73
2022/11/12 05:59:38;;;;;;;0.10;0.10;;;;;;;8.91;57.57;99562.53;8417773;28;20462;-73
2022/11/12 06:03:41;;;;;;;0.10;0.10;;;;;;;8.87;57.59;99569.50;8420106;28;20568;-73
2022/11/12 06:07:44;;;;;;;0.10;0.10;;;;;;;8.87;57.31;99576.38;8420183;28;20234;-73
2022/11/12 06:11:48;;;;;;;0.10;0.10;;;;;;;8.84;56.92;99585.03;8419920;28;20530;-73
2022/11/12 06:15:51;;;;;;;0.10;0.10;;;;;;;8.80;56.89;99576.47;8420158;28;20253;-73
2022/11/12 06:19:54;;;;;;;0.10;0.10;;;;;;;8.74;57.12;99583.44;8419355;28;20222;-73
2022/11/12 06:23:58;;;;;;;0.10;0.10;;;;;;;8.76;57.22;99586.84;8419547;28;20230;-73
2022/11/12 06:28:02;;;;;;;0.10;0.10;;;;;;;8.69;57.10;99588.63;8419401;28;20241;-73
2022/11/12 06:32:05;;;;;;;0.10;0.10;;;;;;;8.68;57.25;99588.66;8419405;28;20241;-73
2022/11/12 06:36:08;;;;;;;0.10;0.10;;;;;;;8.75;56.95;99595.47;8419109;28;20292;-73
2022/11/12 06:40:12;;;;;;;0.10;0.10;;;;;;;8.73;56.81;99587.72;8419225;28;20246;-73
2022/11/12 06:44:16;;;;;;;0.10;0.10;;;;;;;8.78;56.79;99588.53;8418918;28;20227;-73
2022/11/12 06:48:23;;;;;;;0.10;0.10;;;;;;;8.69;56.51;99592.94;8418581;28;20233;-73
2022/11/12 06:52:27;;;;;;;0.10;0.10;;;;;;;8.78;56.62;99590.28;8418813;28;20233;-71
2022/11/12 06:56:30;;;;;;;0.10;0.10;;;;;;;8.82;56.47;99583.34;8418612;28;20499;-71
2022/11/12 07:00:34;;;;;;;0.10;0.10;;;;;;;8.81;56.47;99595.38;8418566;28;20243;-72
2022/11/12 07:04:37;;;;;;;0.10;0.10;;;;;;;8.82;56.67;99588.50;8418301;28;20267;-72
2022/11/12 07:08:43;;;;;;;0.10;0.10;;;;;;;8.94;56.80;99596.09;8417790;28;20231;-71
2022/11/12 07:12:45;;;;;;;0.10;0.10;;;;;;;8.99;56.89;99607.25;8418051;28;20243;-71
2022/11/12 07:16:56;;;;;;;0.10;0.10;;;;;;;8.90;57.37;99610.78;8417640;28;20418;-71
2022/11/12 07:20:59;;;;;;;0.10;0.10;;;;;;;8.90;57.46;99605.63;8417533;28;20237;-71
2022/11/12 07:25:03;;;;;;;0.10;0.10;;;;;;;8.93;58.19;99607.31;8417785;28;20298;-73
2022/11/12 07:29:06;;;;;;;0.10;0.10;;;;;;;9.07;58.49;99602.00;8417466;28;20241;-71
2022/11/12 07:33:10;;;;;;;0.10;0.10;;;;;;;9.02;58.17;99602.03;8417339;28;20235;-71
2022/11/12 07:37:13;;;;;;;0.10;0.10;;;;;;;9.02;59.19;99596.00;8417367;28;20234;-71
2022/11/12 07:41:18;;;;;;;0.10;0.10;;;;;;;9.08;59.28;99596.81;8416997;28;20227;-71
2022/11/12 07:45:20;;;;;;;0.20;0.20;;;;;;;8.97;59.64;99598.66;8417204;28;20537;-71
2022/11/12 07:49:24;;;;;;;0.10;0.10;;;;;;;9.12;59.91;99602.78;8416503;28;20230;-71
2022/11/12 07:53:28;;;;;;;0.10;0.10;;;;;;;9.23;59.49;99603.50;8416921;28;20227;-71
2022/11/12 07:57:32;;;;;;;0.10;0.10;;;;;;;9.34;58.95;99598.19;8416874;28;20231;-71
2022/11/12 08:01:36;;;;;;;0.10;0.10;;;;;;;9.33;59.04;99601.66;8416542;28;20236;-71
2022/11/12 08:05:41;;;;;;;0.10;0.10;;;;;;;9.34;59.20;99600.78;8416028;28;20235;-71
2022/11/12 08:09:44;;;;;;;0.10;0.10;;;;;;;9.46;58.71;99600.63;8416351;28;20227;-71
2022/11/12 08:13:46;;;;;;;0.10;0.10;;;;;;;9.33;59.37;99597.34;8415989;28;20277;-71
2022/11/12 08:17:49;;;;;;;0.10;0.10;;;;;;;9.41;60.03;99599.84;8415557;28;20531;-71
2022/11/12 08:21:53;;;;;;;0.10;0.10;;;;;;;9.51;59.79;99600.56;8414616;28;20510;-71
2022/11/12 08:25:58;;;;;;;0.10;0.10;;;;;;;9.68;59.25;99592.56;8415686;28;20233;-71
2022/11/12 08:30:01;;;;;;;0.10;0.10;;;;;;;9.85;59.12;99592.31;8415615;28;20234;-71
2022/11/12 08:34:10;;;;;;;0.10;0.10;;;;;;;9.77;59.89;99601.03;8415480;28;20226;-71
2022/11/12 08:38:16;;;;;;;0.20;0.20;;;;;;;9.90;59.73;99596.53;8415190;28;20222;-71
2022/11/12 08:42:19;;;;;;;0.10;0.10;;;;;;;10.20;58.73;99598.63;8415306;28;20234;-71
2022/11/12 08:46:22;;;;;;;0.10;0.10;;;;;;;10.18;58.95;99599.53;8415227;28;20234;-71
2022/11/12 08:50:24;;;;;;;0.10;0.10;;;;;;;10.24;59.59;99595.13;8414862;28;20226;-71
2022/11/12 08:54:29;;;;;;;0.10;0.10;;;;;;;10.14;58.17;99591.81;8414857;28;20222;-71
2022/11/12 08:58:31;;;;;;;0.10;0.10;;;;;;;10.21;59.37;99592.59;8414628;28;20235;-71
2022/11/12 09:02:34;;;;;;;0.10;0.10;;;;;;;10.32;59.15;99595.88;8414588;28;20276;-71
2022/11/12 09:06:37;;;;;;;0.10;0.10;;;;;;;10.51;59.16;99604.19;8414333;28;20311;-71
2022/11/12 09:10:41;;;;;;;0.10;0.10;;;;;;;10.81;58.45;99600.16;8414215;28;20300;-71
2022/11/12 09:14:44;;;;;;;0.10;0.10;;;;;;;10.92;58.01;99590.44;8414266;28;20230;-71
2022/11/12 09:18:47;;;;;;;0.10;0.10;;;;;;;11.33;57.56;99593.91;8414299;28;20300;-72
2022/11/12 09:22:51;;;;;;;0.10;0.10;;;;;;;11.68;57.21;99589.69;8413930;28;20231;-71
2022/11/12 09:26:55;;;;;;;0.10;0.10;;;;;;;12.20;55.21;99582.41;8413791;28;20226;-72
2022/11/12 09:30:58;;;;;;;0.10;0.10;;;;;;;12.77;54.16;99582.66;8414104;28;20227;-72
2022/11/12 09:35:00;;;;;;;0.10;0.10;;;;;;;13.00;53.56;99593.25;8413741;28;20238;-71
2022/11/12 09:39:03;;;;;;;0.10;0.10;;;;;;;13.61;52.60;99582.84;8413788;28;20419;-72
2022/11/12 09:43:17;;;;;;;0.10;0.10;;;;;;;13.58;51.52;99582.94;8413574;28;20239;-72
2022/11/12 09:47:25;;;;;;;0.10;0.10;;;;;;;13.97;51.18;99577.34;8413733;28;20234;-72
2022/11/12 09:51:30;;;;;;;0.10;0.10;;;;;;;14.05;50.69;99582.28;8413611;28;20223;-72
2022/11/12 09:55:34;;;;;;;0.10;0.10;;;;;;;14.04;50.59;99584.06;8413655;28;20242;-72
2022/11/12 09:59:41;;;;;;;0.10;0.10;;;;;;;13.62;51.26;99573.28;8413924;28;20231;-72
2022/11/12 10:03:53;;;;;;;0.10;0.10;;;;;;;14.19;50.37;99567.06;8413588;28;20242;-72
2022/11/12 10:08:08;;;;;;;0.10;0.10;;;;;;;14.17;50.77;99562.81;8412982;28;20222;-72
2022/11/12 10:12:33;;;;;;;0.10;0.10;;;;;;;14.30;50.10;99571.06;8413431;28;20234;-72
2022/11/12 10:16:50;;;;;;;0.10;0.10;;;;;;;14.11;50.72;99571.69;8413273;28;20236;-73
2022/11/12 10:20:55;;;;;;;0.10;0.10;;;;;;;14.40;51.50;99565.50;8412720;28;20255;-72
2022/11/12 10:24:59;;;;;;;0.10;0.10;;;;;;;14.50;50.99;99573.84;8413020;28;20230;-72
2022/11/12 10:29:12;;;;;;;0.10;0.10;;;;;;;14.42;51.32;99553.25;8412609;28;20603;-72
2022/11/12 10:33:16;;;;;;;0.00;0.00;;;;;;;14.44;51.68;99548.00;8412886;28;20234;-72
2022/11/12 10:37:23;;;;;;;0.10;0.10;;;;;;;14.39;52.23;99544.69;8413052;28;20231;-72
2022/11/12 10:41:29;;;;;;;0.10;0.10;;;;;;;14.20;52.96;99542.72;8412801;28;20280;-72
2022/11/12 10:45:32;;;;;;;0.10;0.10;;;;;;;14.13;52.58;99545.59;8416505;28;20253;-72
2022/11/12 10:49:36;;;;;;;0.00;0.00;;;;;;;13.86;53.42;99530.84;8418905;28;20334;-72
2022/11/12 10:53:40;;;;;;;0.10;0.10;;;;;;;13.76;53.73;99529.41;8418592;28;20231;-72
2022/11/12 10:57:43;;;;;;;0.10;0.10;;;;;;;13.65;54.32;99528.91;8418599;28;20227;-72
2022/11/12 11:01:54;;;;;;;0.10;0.10;;;;;;;13.68;55.01;99524.47;8418527;28;20230;-72
2022/11/12 11:05:59;;;;;;;0.10;0.10;;;;;;;13.76;54.80;99518.16;8417688;28;20296;-72
2022/11/12 11:10:02;;;;;;;0.10;0.10;;;;;;;13.58;55.41;99509.19;8417675;28;20245;-72
2022/11/12 11:14:25;;;;;;;0.10;0.10;;;;;;;13.72;54.88;99514.78;8418182;28;20455;-72
2022/11/12 11:18:29;;;;;;;0.10;0.10;;;;;;;13.59;55.40;99509.13;8418025;28;20230;-72
2022/11/12 11:22:40;;;;;;;0.10;0.10;;;;;;;13.74;55.36;99510.38;8417913;28;20230;-72
2022/11/12 11:26:52;;;;;;;0.10;0.10;;;;;;;13.38;55.67;99510.66;8417582;28;20234;-72
2022/11/12 11:30:59;;;;;;;0.10;0.10;;;;;;;13.61;55.34;99504.75;8417167;28;20572;-72
2022/11/12 11:35:11;;;;;;;0.10;0.10;;;;;;;13.76;54.96;99490.34;8417444;28;20235;-72
2022/11/12 11:39:21;;;;;;;0.10;0.10;;;;;;;13.61;55.56;99494.34;8417357;28;20231;-73
2022/11/12 11:43:48;;;;;;;0.10;0.10;;;;;;;13.87;54.50;99484.81;8417112;28;20234;-72
2022/11/12 11:47:54;;;;;;;0.10;0.10;;;;;;;13.83;54.58;99484.06;8407663;28;20256;-72
2022/11/12 11:52:15;;;;;;;0.10;0.10;;;;;;;14.06;54.48;99482.41;8416350;28;20230;-72
2022/11/12 11:56:23;;;;;;;0.10;0.10;;;;;;;14.14;54.42;99474.34;8415301;28;20227;-72
2022/11/12 12:00:30;;;;;;;0.10;0.10;;;;;;;14.13;54.78;99476.09;8416619;28;20424;-72
2022/11/12 12:04:42;;;;;;;0.10;0.10;;;;;;;14.20;54.30;99477.59;8416740;28;20243;-72
2022/11/12 12:08:59;;;;;;;0.10;0.10;;;;;;;14.27;54.55;99473.00;8416291;28;20235;-72
2022/11/12 12:13:08;;;;;;;0.03;0.03;;;;;;;14.34;53.96;99465.84;8415407;28;20553;-72
2022/11/12 12:17:21;;;;;;;0.10;0.10;;;;;;;14.30;54.26;99469.44;8416218;28;20230;-72
2022/11/12 12:21:30;;;;;;;0.10;0.10;;;;;;;14.34;54.84;99466.69;8416142;28;20222;-72
2022/11/12 12:25:36;;;;;;;0.10;0.10;;;;;;;14.27;54.63;99455.59;8415916;28;20230;-72
2022/11/12 12:29:46;;;;;;;0.10;0.10;;;;;;;14.16;54.53;99447.31;8415882;28;20238;-73
2022/11/12 12:33:51;;;;;;;0.10;0.10;;;;;;;14.19;54.72;99441.16;8415593;28;20545;-72
2022/11/12 12:38:01;;;;;;;0.00;0.00;;;;;;;14.34;53.94;99432.81;8414906;28;20234;-73
2022/11/12 12:42:06;;;;;;;0.10;0.10;;;;;;;14.27;55.35;99424.34;8415146;28;20235;-72
2022/11/12 12:46:11;;;;;;;0.10;0.10;;;;;;;14.39;54.83;99425.69;8414889;28;20234;-72
2022/11/12 12:50:15;;;;;;;0.10;0.10;;;;;;;14.31;55.28;99416.41;8414322;28;20234;-72
2022/11/12 12:54:56;;;;;;;0.10;0.10;;;;;;;14.39;55.56;99419.59;8414517;28;20230;-72
2022/11/12 12:59:02;;;;;;;0.10;0.10;;;;;;;14.39;55.88;99409.16;8413655;28;20235;-72
2022/11/12 13:03:07;;;;;;;0.10;0.10;;;;;;;14.42;56.14;99411.66;8413811;28;20238;-72
2022/11/12 13:07:10;;;;;;;0.10;0.10;;;;;;;14.37;56.13;99411.81;8413636;28;20235;-72
2022/11/12 13:16:58;;;;;;;0.10;0.10;;;;;;;14.41;56.13;99409.97;8413157;28;20234;-73
2022/11/12 13:21:10;;;;;;;0.10;0.10;;;;;;;14.43;56.40;99409.00;8384068;28;20234;-72
2022/11/12 13:25:26;;;;;;;0.10;0.10;;;;;;;14.36;55.45;99402.31;8412354;28;20227;-72
2022/11/12 13:29:45;;;;;;;0.07;0.07;;;;;;;14.50;55.50;99408.78;8411827;28;20302;-72
2022/11/12 13:33:48;;;;;;;0.10;0.10;;;;;;;14.51;56.40;99405.25;8412716;28;20241;-72
2022/11/12 13:37:54;;;;;;;0.10;0.10;;;;;;;14.56;55.56;99398.13;8412715;28;20514;-72
2022/11/12 13:46:29;;;;;;;0.10;0.10;;;;;;;14.55;54.14;99407.69;8412370;28;20246;-73
2022/11/12 13:50:32;;;;;;;0.10;0.10;;;;;;;14.56;54.68;99411.16;8412490;28;20245;-72
2022/11/12 13:54:43;;;;;;;0.10;0.10;;;;;;;14.41;54.42;99403.00;8412639;28;20336;-72
2022/11/12 13:58:46;;;;;;;0.00;0.00;;;;;;;14.35;54.74;99411.03;8412554;28;20231;-72
2022/11/12 14:02:52;;;;;;;0.00;0.00;;;;;;;14.34;57.08;99403.28;8411592;28;20502;-72
2022/11/12 14:07:00;;;;;;;0.10;0.10;;;;;;;14.37;57.44;99400.56;8410988;28;20231;-72
2022/11/12 14:11:12;;;;;;;0.10;0.10;;;;;;;14.25;58.06;99410.53;8410952;28;20243;-72
2022/11/12 14:15:25;;;;;;;0.00;0.00;;;;;;;14.24;58.22;99413.19;8411015;28;20563;-72
2022/11/12 14:19:48;;;;;;;0.00;0.00;;;;;;;14.18;58.56;99410.78;8413078;28;20246;-72
2022/11/12 14:23:50;;;;;;;0.10;0.10;;;;;;;14.08;58.97;99407.69;8417547;28;20234;-72
2022/11/12 14:27:55;;;;;;;0.10;0.10;;;;;;;14.08;58.63;99405.91;8416974;28;20231;-73
2022/11/12 14:32:02;;;;;;;0.10;0.10;;;;;;;13.98;58.69;99407.16;8417175;28;20242;-72
2022/11/12 14:36:07;;;;;;;0.10;0.10;;;;;;;13.93;59.19;99405.63;8417410;28;20237;-72
2022/11/12 14:40:16;;;;;;;0.10;0.10;;;;;;;13.94;59.25;99395.16;8417417;28;20568;-72
2022/11/12 14:44:22;;;;;;;0.10;0.10;;;;;;;13.80;59.47;99392.16;8417715;28;20503;-72
2022/11/12 14:48:26;;;;;;;0.00;0.00;;;;;;;13.75;59.57;99387.13;8417599;28;20242;-73
2022/11/12 14:52:31;;;;;;;0.10;0.10;;;;;;;13.67;59.56;99379.59;8417238;28;20506;-72
2022/11/12 14:56:39;;;;;;;0.07;0.07;;;;;;;13.64;59.78;99374.47;8416966;28;20231;-73
2022/11/12 15:00:44;;;;;;;0.10;0.10;;;;;;;13.55;60.17;99369.59;8416611;28;20250;-72
2022/11/12 15:04:53;;;;;;;0.10;0.10;;;;;;;13.46;60.35;99369.88;8416361;28;20533;-73
2022/11/12 15:08:57;;;;;;;0.10;0.10;;;;;;;13.39;60.60;99374.47;8415907;28;20254;-73
2022/11/12 15:13:03;;;;;;;0.00;0.00;;;;;;;13.36;60.47;99364.16;8415914;28;20255;-72
2022/11/12 15:17:18;;;;;;;0.00;0.00;;;;;;;13.32;60.93;99367.75;8415935;28;20280;-72
2022/11/12 15:21:24;;;;;;;0.10;0.10;;;;;;;13.17;60.83;99353.47;8416228;28;20616;-72
2022/11/12 15:25:29;;;;;;;0.10;0.10;;;;;;;13.14;60.95;99352.75;8415905;28;20230;-72
2022/11/12 15:29:34;;;;;;;0.00;0.00;;;;;;;13.05;61.03;99349.53;8415720;28;20568;-72
2022/11/12 15:33:38;;;;;;;0.03;0.03;;;;;;;12.94;61.42;99345.56;8415469;28;20238;-73
2022/11/12 15:37:42;;;;;;;0.00;0.00;;;;;;;12.87;61.52;99347.50;8415905;28;20410;-72
2022/11/12 15:41:45;;;;;;;0.10;0.10;;;;;;;12.70;61.72;99335.06;8415735;28;20249;-73
2022/11/12 15:45:49;;;;;;;0.10;0.10;;;;;;;12.72;62.02;99341.06;8415643;28;20424;-73
2022/11/12 15:49:54;;;;;;;0.10;0.10;;;;;;;12.64;61.97;99340.44;8415276;28;20234;-73
2022/11/12 15:53:57;;;;;;;0.10;0.10;;;;;;;12.62;61.37;99334.44;8414360;28;20233;-73
2022/11/12 15:58:00;;;;;;;0.10;0.10;;;;;;;12.54;61.65;99326.03;8415005;28;20250;-72
2022/11/12 16:02:03;;;;;;;0.10;0.10;;;;;;;12.50;61.44;99326.13;8414846;28;20230;-72
2022/11/12 16:06:10;;;;;;;0.10;0.10;;;;;;;12.41;61.88;99333.34;8414594;28;20250;-72
2022/11/12 16:10:14;;;;;;;0.10;0.10;;;;;;;12.38;61.21;99329.09;8414735;28;20238;-72
2022/11/12 16:14:16;;;;;;;0.10;0.10;;;;;;;12.34;62.00;99327.50;8415014;28;20569;-73
2022/11/12 16:18:26;;;;;;;0.10;0.10;;;;;;;12.31;61.90;99325.81;8414531;28;20258;-72
2022/11/12 16:22:30;;;;;;;0.10;0.10;;;;;;;12.29;61.85;99316.38;8414311;28;20226;-72
2022/11/12 16:26:33;;;;;;;0.10;0.10;;;;;;;12.22;61.43;99314.84;8413928;28;20240;-72
2022/11/12 16:30:36;;;;;;;0.10;0.10;;;;;;;12.12;61.19;99315.13;8413875;28;20231;-72
2022/11/12 16:34:39;;;;;;;0.10;0.10;;;;;;;12.10;60.67;99326.44;8414283;28;20419;-73
2022/11/12 16:38:44;;;;;;;0.10;0.10;;;;;;;12.01;60.73;99322.38;8413335;28;20235;-72
2022/11/12 16:42:47;;;;;;;0.10;0.10;;;;;;;11.95;60.96;99319.09;8412843;28;20533;-73
2022/11/12 16:46:50;;;;;;;0.10;0.10;;;;;;;11.87;60.89;99317.53;8413195;28;20529;-72
2022/11/12 16:50:53;;;;;;;0.10;0.10;;;;;;;11.83;60.95;99313.34;8412217;28;20241;-73
2022/11/12 16:54:57;;;;;;;0.10;0.10;;;;;;;11.79;60.74;99309.13;8412987;28;20529;-73
2022/11/12 16:59:06;;;;;;;0.10;0.10;;;;;;;11.74;60.87;99308.41;8412927;28;20241;-73
2022/11/12 17:03:11;;;;;;;0.10;0.10;;;;;;;11.68;60.68;99305.97;8412886;28;20234;-73
2022/11/12 17:07:15;;;;;;;0.10;0.10;;;;;;;11.66;60.59;99310.34;8412663;28;20234;-73
2022/11/12 17:11:20;;;;;;;0.10;0.10;;;;;;;11.59;60.86;99306.22;8413129;28;20227;-73
2022/11/12 17:15:23;;;;;;;0.10;0.10;;;;;;;11.54;60.53;99304.59;8412682;28;20227;-73
2022/11/12 17:19:26;;;;;;;0.10;0.10;;;;;;;11.53;60.72;99292.50;8413226;28;20312;-73
2022/11/12 17:23:29;;;;;;;0.10;0.10;;;;;;;11.51;60.57;99296.06;8418618;28;20227;-73
2022/11/12 17:27:33;;;;;;;0.10;0.10;;;;;;;11.49;60.13;99290.06;8412538;28;20227;-73
2022/11/12 17:31:36;;;;;;;0.10;0.10;;;;;;;11.43;59.87;99287.63;8412434;28;20477;-73
2022/11/12 17:35:38;;;;;;;0.10;0.10;;;;;;;11.34;59.97;99281.78;8412331;28;20227;-73
2022/11/12 17:39:43;;;;;;;0.10;0.10;;;;;;;11.28;59.86;99294.91;8412363;28;20248;-73
2022/11/12 17:43:47;;;;;;;0.10;0.10;;;;;;;11.27;59.95;99280.25;8412109;28;20568;-73
2022/11/12 17:47:50;;;;;;;0.10;0.10;;;;;;;11.22;60.48;99284.72;8411690;28;20320;-73
2022/11/12 17:51:52;;;;;;;0.10;0.10;;;;;;;11.28;59.96;99288.88;8411114;28;20299;-74
2022/11/12 17:55:56;;;;;;;0.10;0.10;;;;;;;11.12;60.03;99281.50;8410750;28;20243;-73
2022/11/12 18:00:00;;;;;;;0.10;0.10;;;;;;;11.13;59.93;99275.41;8411784;28;20241;-73
2022/11/12 18:04:04;;;;;;;0.10;0.10;;;;;;;10.99;60.51;99276.69;8411614;28;20252;-73
2022/11/12 18:08:07;;;;;;;0.10;0.10;;;;;;;10.95;60.73;99284.53;8411484;28;20238;-73
2022/11/12 18:12:10;;;;;;;0.10;0.10;;;;;;;10.94;60.64;99289.72;8411370;28;20537;-73
2022/11/12 18:16:15;;;;;;;0.10;0.10;;;;;;;10.96;60.62;99290.53;8417442;28;20254;-73
2022/11/12 18:20:18;;;;;;;0.10;0.10;;;;;;;10.87;60.70;99289.06;8411684;28;20238;-73
2022/11/12 18:24:21;;;;;;;0.10;0.10;;;;;;;10.78;60.33;99288.44;8411471;28;20317;-73
2022/11/12 18:28:23;;;;;;;0.10;0.10;;;;;;;10.68;60.46;99288.63;8411627;28;20385;-73
2022/11/12 18:32:28;;;;;;;0.10;0.10;;;;;;;10.71;60.49;99282.53;8411180;28;20317;-73
2022/11/12 18:36:30;;;;;;;0.10;0.10;;;;;;;10.74;59.96;99282.47;8411177;28;20253;-72
2022/11/12 18:40:33;;;;;;;0.10;0.10;;;;;;;10.68;59.98;99275.69;8411082;28;20398;-73
2022/11/12 18:44:36;;;;;;;0.10;0.10;;;;;;;10.67;59.89;99275.72;8411060;28;20238;-73
2022/11/12 18:48:40;;;;;;;0.10;0.10;;;;;;;10.58;59.47;99276.78;8410832;28;20254;-73
2022/11/12 18:52:43;;;;;;;0.10;0.10;;;;;;;10.48;58.89;99270.13;8411131;28;20235;-73
2022/11/12 18:56:46;;;;;;;0.10;0.10;;;;;;;10.38;59.41;99266.88;8411525;28;20231;-73
2022/11/12 19:00:49;;;;;;;0.10;0.10;;;;;;;10.37;59.26;99271.19;8411786;28;20330;-73
2022/11/12 19:04:54;;;;;;;0.10;0.10;;;;;;;10.39;59.24;99254.78;8412731;28;20392;-73
2022/11/12 19:09:00;;;;;;;0.10;0.10;;;;;;;10.26;59.45;99249.00;8417259;28;20351;-73
2022/11/12 19:13:05;;;;;;;0.10;0.10;;;;;;;10.28;59.27;99255.84;8417132;28;20234;-72
2022/11/12 19:17:08;;;;;;;0.10;0.10;;;;;;;10.26;59.33;99249.88;8417485;28;20238;-71
2022/11/12 19:21:14;;;;;;;0.10;0.10;;;;;;;10.20;59.44;99251.72;8417064;28;20234;-71
2022/11/12 19:25:16;;;;;;;0.10;0.10;;;;;;;10.16;59.59;99246.59;8417390;28;20227;-72
2022/11/12 19:29:19;;;;;;;0.10;0.10;;;;;;;10.10;59.29;99243.31;8417297;28;20229;-72
2022/11/12 19:33:22;;;;;;;0.10;0.10;;;;;;;10.02;59.53;99245.22;8416978;28;20504;-72
2022/11/12 19:37:26;;;;;;;0.10;0.10;;;;;;;9.95;59.00;99234.16;8416711;28;20415;-72
2022/11/12 19:41:35;;;;;;;0.10;0.10;;;;;;;10.00;58.55;99236.66;8416596;28;20503;-72
2022/11/12 19:45:38;;;;;;;0.10;0.10;;;;;;;10.01;58.78;99238.34;8416866;28;20230;-72
2022/11/12 19:49:40;;;;;;;0.10;0.10;;;;;;;9.87;58.72;99231.72;8416759;28;20235;-72
2022/11/12 19:53:44;;;;;;;0.20;0.20;;;;;;;9.88;59.23;99228.25;8416531;28;20239;-72
2022/11/12 19:57:47;;;;;;;0.10;0.10;;;;;;;9.89;59.02;99226.53;8416401;28;20226;-72
2022/11/12 20:01:50;;;;;;;0.10;0.10;;;;;;;9.78;59.00;99226.75;8416309;28;20237;-72